sensor_id;sensor_type;location;lat;lon;timestamp;temperature;humidity
15959;DHT22;8078;47.822;9.402;2024-03-23T00:54:22;10.40;1.00
15959;DHT22;8078;47.822;9.402;2024-03-23T00:56:47;10.40;1.00
15959;DHT22;8078;47.822;9.402;2024-03-23T00:59:13;10.30;1.00
15959;DHT22;8078;47.822;9.402;2024-03-23T01:01:39;10.30;1.00
15959;DHT22;8078;47.822;9.402;2024-03-23T01:04:04;10.40;1.00
15959;DHT22;8078;47.822;9.402;2024-03-23T01:06:30;10.40;1.00
15959;DHT22;8078;47.822;9.402;2024-03-23T01:08:56;10.30;1.00
15959;DHT22;8078;47.822;9.402;2024-03-23T01:11:21;10.20;1.00
15959;DHT22;8078;47.822;9.402;2024-03-23T01:13:47;10.10;1.00
15959;DHT22;8078;47.822;9.402;2024-03-23T01:16:12;10.10;1.00
15959;DHT22;8078;47.822;9.402;2024-03-23T01:18:38;10.10;1.00
15959;DHT22;8078;47.822;9.402;2024-03-23T01:21:04;10.20;1.00
15959;DHT22;8078;47.822;9.402;2024-03-23T01:23:29;10.30;1.00
15959;DHT22;8078;47.822;9.402;2024-03-23T01:25:55;10.40;1.00
15959;DHT22;8078;47.822;9.402;2024-03-23T01:28:21;10.30;1.00
15959;DHT22;8078;47.822;9.402;2024-03-23T01:30:46;10.30;1.00
15959;DHT22;8078;47.822;9.402;2024-03-23T01:33:12;10.30;1.00
15959;DHT22;8078;47.822;9.402;2024-03-23T01:35:38;10.30;1.00
15959;DHT22;8078;47.822;9.402;2024-03-23T01:38:04;10.30;1.00
15959;DHT22;8078;47.822;9.402;2024-03-23T01:40:29;10.30;1.00
15959;DHT22;8078;47.822;9.402;2024-03-23T01:43:07;10.40;1.00
15959;DHT22;8078;47.822;9.402;2024-03-23T01:45:34;10.30;1.00
15959;DHT22;8078;47.822;9.402;2024-03-23T01:47:59;10.30;1.00
15959;DHT22;8078;47.822;9.402;2024-03-23T01:50:26;10.20;1.00
15959;DHT22;8078;47.822;9.402;2024-03-23T01:52:53;10.20;1.00
15959;DHT22;8078;47.822;9.402;2024-03-23T01:55:19;10.10;1.00
15959;DHT22;8078;47.822;9.402;2024-03-23T01:57:44;10.20;1.00
15959;DHT22;8078;47.822;9.402;2024-03-23T02:00:10;10.20;1.00
15959;DHT22;8078;47.822;9.402;2024-03-23T02:02:46;10.20;1.00
15959;DHT22;8078;47.822;9.402;2024-03-23T02:05:13;10.10;1.00
15959;DHT22;8078;47.822;9.402;2024-03-23T02:07:42;10.10;1.00
15959;DHT22;8078;47.822;9.402;2024-03-23T02:10:10;10.10;1.00
15959;DHT22;8078;47.822;9.402;2024-03-23T02:12:39;10.10;1.00
15959;DHT22;8078;47.822;9.402;2024-03-23T02:15:04;10.00;1.00
15959;DHT22;8078;47.822;9.402;2024-03-23T02:17:32;9.90;1.00
15959;DHT22;8078;47.822;9.402;2024-03-23T02:19:58;9.80;1.00
15959;DHT22;8078;47.822;9.402;2024-03-23T02:22:24;9.70;1.00
15959;DHT22;8078;47.822;9.402;2024-03-23T02:24:49;9.70;1.00
15959;DHT22;8078;47.822;9.402;2024-03-23T02:27:15;9.60;1.00
15959;DHT22;8078;47.822;9.402;2024-03-23T02:29:40;9.70;1.00
15959;DHT22;8078;47.822;9.402;2024-03-23T02:32:06;9.60;1.00
15959;DHT22;8078;47.822;9.402;2024-03-23T02:34:34;9.50;1.00
15959;DHT22;8078;47.822;9.402;2024-03-23T02:37:00;9.40;1.00
15959;DHT22;8078;47.822;9.402;2024-03-23T02:39:25;9.50;1.00
15959;DHT22;8078;47.822;9.402;2024-03-23T02:41:51;9.40;1.00
15959;DHT22;8078;47.822;9.402;2024-03-23T02:44:16;9.50;1.00
15959;DHT22;8078;47.822;9.402;2024-03-23T02:46:42;9.50;1.00
15959;DHT22;8078;47.822;9.402;2024-03-23T02:49:07;9.40;1.00
15959;DHT22;8078;47.822;9.402;2024-03-23T02:51:33;9.60;1.00
15959;DHT22;8078;47.822;9.402;2024-03-23T02:53:59;9.60;1.00
15959;DHT22;8078;47.822;9.402;2024-03-23T02:56:24;9.60;1.00
15959;DHT22;8078;47.822;9.402;2024-03-23T02:58:50;9.60;1.00
15959;DHT22;8078;47.822;9.402;2024-03-23T03:01:15;9.50;1.00
15959;DHT22;8078;47.822;9.402;2024-03-23T03:03:41;9.60;1.00
15959;DHT22;8078;47.822;9.402;2024-03-23T03:06:06;9.50;1.00
15959;DHT22;8078;47.822;9.402;2024-03-23T03:08:32;9.50;1.00
15959;DHT22;8078;47.822;9.402;2024-03-23T03:10:58;9.50;1.00
15959;DHT22;8078;47.822;9.402;2024-03-23T03:13:23;9.40;1.00
15959;DHT22;8078;47.822;9.402;2024-03-23T03:15:49;9.40;1.00
15959;DHT22;8078;47.822;9.402;2024-03-23T03:18:15;9.50;1.00
15959;DHT22;8078;47.822;9.402;2024-03-23T03:20:40;9.70;1.00
15959;DHT22;8078;47.822;9.402;2024-03-23T03:23:11;9.70;1.00
15959;DHT22;8078;47.822;9.402;2024-03-23T03:25:37;9.70;1.00
15959;DHT22;8078;47.822;9.402;2024-03-23T03:28:03;9.70;1.00
15959;DHT22;8078;47.822;9.402;2024-03-23T03:30:29;9.60;1.00
15959;DHT22;8078;47.822;9.402;2024-03-23T03:32:54;9.50;1.00
15959;DHT22;8078;47.822;9.402;2024-03-23T03:35:20;9.50;1.00
15959;DHT22;8078;47.822;9.402;2024-03-23T03:37:46;9.60;1.00
15959;DHT22;8078;47.822;9.402;2024-03-23T03:40:12;9.60;1.00
15959;DHT22;8078;47.822;9.402;2024-03-23T03:42:40;9.40;1.00
15959;DHT22;8078;47.822;9.402;2024-03-23T03:45:06;9.60;1.00
15959;DHT22;8078;47.822;9.402;2024-03-23T03:47:32;9.80;1.00
15959;DHT22;8078;47.822;9.402;2024-03-23T03:49:57;9.90;1.00
15959;DHT22;8078;47.822;9.402;2024-03-23T03:52:23;9.90;1.00
15959;DHT22;8078;47.822;9.402;2024-03-23T03:54:48;9.70;1.00
15959;DHT22;8078;47.822;9.402;2024-03-23T03:57:14;9.70;1.00
15959;DHT22;8078;47.822;9.402;2024-03-23T03:59:40;9.70;1.00
15959;DHT22;8078;47.822;9.402;2024-03-23T04:02:05;9.80;1.00
15959;DHT22;8078;47.822;9.402;2024-03-23T04:04:31;9.70;1.00
15959;DHT22;8078;47.822;9.402;2024-03-23T04:07:00;9.70;1.00
15959;DHT22;8078;47.822;9.402;2024-03-23T04:09:26;9.60;1.00
15959;DHT22;8078;47.822;9.402;2024-03-23T04:11:52;9.60;1.00
15959;DHT22;8078;47.822;9.402;2024-03-23T04:14:17;9.60;1.00
15959;DHT22;8078;47.822;9.402;2024-03-23T04:16:43;9.60;1.00
15959;DHT22;8078;47.822;9.402;2024-03-23T04:19:08;9.60;1.00
15959;DHT22;8078;47.822;9.402;2024-03-23T04:21:35;9.70;1.00
15959;DHT22;8078;47.822;9.402;2024-03-23T04:24:00;9.80;1.00
15959;DHT22;8078;47.822;9.402;2024-03-23T04:26:26;9.70;1.00
15959;DHT22;8078;47.822;9.402;2024-03-23T04:28:51;9.80;1.00
15959;DHT22;8078;47.822;9.402;2024-03-23T04:31:17;9.70;1.00
15959;DHT22;8078;47.822;9.402;2024-03-23T04:33:43;9.80;1.00
15959;DHT22;8078;47.822;9.402;2024-03-23T04:36:08;9.70;1.00
15959;DHT22;8078;47.822;9.402;2024-03-23T04:38:35;9.60;1.00
15959;DHT22;8078;47.822;9.402;2024-03-23T04:41:01;9.70;1.00
15959;DHT22;8078;47.822;9.402;2024-03-23T04:43:27;9.60;1.00
15959;DHT22;8078;47.822;9.402;2024-03-23T04:45:54;9.70;1.00
15959;DHT22;8078;47.822;9.402;2024-03-23T04:48:21;9.60;1.00
15959;DHT22;8078;47.822;9.402;2024-03-23T04:50:48;9.60;1.00
15959;DHT22;8078;47.822;9.402;2024-03-23T04:53:14;9.50;1.00
15959;DHT22;8078;47.822;9.402;2024-03-23T04:55:42;9.40;1.00
15959;DHT22;8078;47.822;9.402;2024-03-23T04:58:07;9.40;1.00
15959;DHT22;8078;47.822;9.402;2024-03-23T05:00:33;9.40;1.00
15959;DHT22;8078;47.822;9.402;2024-03-23T05:02:59;9.30;1.00
15959;DHT22;8078;47.822;9.402;2024-03-23T05:05:25;9.30;1.00
15959;DHT22;8078;47.822;9.402;2024-03-23T05:07:50;9.30;1.00
15959;DHT22;8078;47.822;9.402;2024-03-23T05:10:16;9.30;1.00
15959;DHT22;8078;47.822;9.402;2024-03-23T05:12:41;9.40;1.00
15959;DHT22;8078;47.822;9.402;2024-03-23T05:15:07;9.30;1.00
15959;DHT22;8078;47.822;9.402;2024-03-23T05:17:33;9.40;1.00
15959;DHT22;8078;47.822;9.402;2024-03-23T05:19:59;9.40;1.00
15959;DHT22;8078;47.822;9.402;2024-03-23T05:22:25;9.50;1.00
15959;DHT22;8078;47.822;9.402;2024-03-23T05:24:52;9.60;1.00
15959;DHT22;8078;47.822;9.402;2024-03-23T05:27:18;9.60;1.00
15959;DHT22;8078;47.822;9.402;2024-03-23T05:29:44;9.60;1.00
15959;DHT22;8078;47.822;9.402;2024-03-23T05:32:09;9.50;1.00
15959;DHT22;8078;47.822;9.402;2024-03-23T05:34:35;9.50;1.00
15959;DHT22;8078;47.822;9.402;2024-03-23T05:37:00;9.50;1.00
15959;DHT22;8078;47.822;9.402;2024-03-23T05:39:26;9.40;1.00
15959;DHT22;8078;47.822;9.402;2024-03-23T05:41:52;9.50;1.00
15959;DHT22;8078;47.822;9.402;2024-03-23T05:44:17;9.40;1.00
15959;DHT22;8078;47.822;9.402;2024-03-23T05:46:43;9.30;1.00
15959;DHT22;8078;47.822;9.402;2024-03-23T05:49:13;9.10;1.00
15959;DHT22;8078;47.822;9.402;2024-03-23T05:51:39;8.90;1.00
15959;DHT22;8078;47.822;9.402;2024-03-23T05:54:05;9.00;1.00
15959;DHT22;8078;47.822;9.402;2024-03-23T05:56:31;9.00;1.00
15959;DHT22;8078;47.822;9.402;2024-03-23T05:58:57;8.90;1.00
15959;DHT22;8078;47.822;9.402;2024-03-23T06:01:22;8.80;1.00
15959;DHT22;8078;47.822;9.402;2024-03-23T06:03:48;8.70;1.00
15959;DHT22;8078;47.822;9.402;2024-03-23T06:06:13;8.70;1.00
15959;DHT22;8078;47.822;9.402;2024-03-23T06:08:39;8.50;1.00
15959;DHT22;8078;47.822;9.402;2024-03-23T06:11:05;8.30;1.00
15959;DHT22;8078;47.822;9.402;2024-03-23T06:13:32;8.30;1.00
15959;DHT22;8078;47.822;9.402;2024-03-23T06:15:57;8.20;1.00
15959;DHT22;8078;47.822;9.402;2024-03-23T06:18:24;8.20;1.00
15959;DHT22;8078;47.822;9.402;2024-03-23T06:20:49;8.10;1.00
15959;DHT22;8078;47.822;9.402;2024-03-23T06:23:15;7.90;98.70
15959;DHT22;8078;47.822;9.402;2024-03-23T06:25:42;7.70;99.90
15959;DHT22;8078;47.822;9.402;2024-03-23T06:28:08;7.60;99.90
15959;DHT22;8078;47.822;9.402;2024-03-23T06:30:34;7.60;99.90
15959;DHT22;8078;47.822;9.402;2024-03-23T06:32:59;7.50;99.90
15959;DHT22;8078;47.822;9.402;2024-03-23T06:35:25;7.50;99.90
15959;DHT22;8078;47.822;9.402;2024-03-23T06:37:50;7.50;99.90
15959;DHT22;8078;47.822;9.402;2024-03-23T06:40:16;7.40;99.90
15959;DHT22;8078;47.822;9.402;2024-03-23T06:42:41;7.30;99.90
15959;DHT22;8078;47.822;9.402;2024-03-23T06:45:07;7.30;99.90
15959;DHT22;8078;47.822;9.402;2024-03-23T06:47:33;7.40;99.90
15959;DHT22;8078;47.822;9.402;2024-03-23T06:50:02;7.30;99.90
15959;DHT22;8078;47.822;9.402;2024-03-23T06:52:28;7.30;99.90
15959;DHT22;8078;47.822;9.402;2024-03-23T06:54:54;7.30;99.90
15959;DHT22;8078;47.822;9.402;2024-03-23T06:57:19;7.30;99.90
15959;DHT22;8078;47.822;9.402;2024-03-23T06:59:45;7.30;99.90
15959;DHT22;8078;47.822;9.402;2024-03-23T07:02:10;7.30;99.90
15959;DHT22;8078;47.822;9.402;2024-03-23T07:04:37;7.30;99.90
15959;DHT22;8078;47.822;9.402;2024-03-23T07:07:05;7.30;99.90
15959;DHT22;8078;47.822;9.402;2024-03-23T07:09:30;7.30;99.90
15959;DHT22;8078;47.822;9.402;2024-03-23T07:11:59;7.30;99.90
15959;DHT22;8078;47.822;9.402;2024-03-23T07:14:25;7.30;99.90
15959;DHT22;8078;47.822;9.402;2024-03-23T07:16:51;7.30;99.90
15959;DHT22;8078;47.822;9.402;2024-03-23T07:19:17;7.30;99.90
15959;DHT22;8078;47.822;9.402;2024-03-23T07:21:45;7.40;99.90
15959;DHT22;8078;47.822;9.402;2024-03-23T07:24:12;7.40;99.90
15959;DHT22;8078;47.822;9.402;2024-03-23T07:26:38;7.40;99.90
15959;DHT22;8078;47.822;9.402;2024-03-23T07:29:04;7.40;99.90
15959;DHT22;8078;47.822;9.402;2024-03-23T07:31:30;7.40;99.90
15959;DHT22;8078;47.822;9.402;2024-03-23T07:33:55;7.40;99.90
15959;DHT22;8078;47.822;9.402;2024-03-23T07:36:21;7.50;99.90
15959;DHT22;8078;47.822;9.402;2024-03-23T07:38:46;7.50;99.90
15959;DHT22;8078;47.822;9.402;2024-03-23T07:41:15;7.50;99.90
15959;DHT22;8078;47.822;9.402;2024-03-23T07:43:44;7.50;99.90
15959;DHT22;8078;47.822;9.402;2024-03-23T07:46:10;7.50;99.90
15959;DHT22;8078;47.822;9.402;2024-03-23T07:48:37;7.50;99.90
15959;DHT22;8078;47.822;9.402;2024-03-23T07:51:14;7.50;99.90
15959;DHT22;8078;47.822;9.402;2024-03-23T07:53:42;7.50;99.90
15959;DHT22;8078;47.822;9.402;2024-03-23T07:56:09;7.50;99.90
15959;DHT22;8078;47.822;9.402;2024-03-23T07:58:37;7.50;99.90
15959;DHT22;8078;47.822;9.402;2024-03-23T08:01:05;7.40;99.90
15959;DHT22;8078;47.822;9.402;2024-03-23T08:03:31;7.50;99.90
15959;DHT22;8078;47.822;9.402;2024-03-23T08:05:57;7.60;99.90
15959;DHT22;8078;47.822;9.402;2024-03-23T08:08:22;7.70;99.90
15959;DHT22;8078;47.822;9.402;2024-03-23T08:10:52;7.40;99.90
15959;DHT22;8078;47.822;9.402;2024-03-23T08:13:18;6.70;3.70
15959;DHT22;8078;47.822;9.402;2024-03-23T08:15:43;6.70;2.70
15959;DHT22;8078;47.822;9.402;2024-03-23T08:18:11;6.30;44.60
15959;DHT22;8078;47.822;9.402;2024-03-23T08:20:37;6.10;25.30
15959;DHT22;8078;47.822;9.402;2024-03-23T08:23:02;6.10;4.60
15959;DHT22;8078;47.822;9.402;2024-03-23T08:25:31;6.10;54.00
15959;DHT22;8078;47.822;9.402;2024-03-23T08:27:57;6.00;54.80
15959;DHT22;8078;47.822;9.402;2024-03-23T08:30:22;5.90;61.30
15959;DHT22;8078;47.822;9.402;2024-03-23T08:32:48;5.90;97.20
15959;DHT22;8078;47.822;9.402;2024-03-23T08:35:14;5.90;99.90
15959;DHT22;8078;47.822;9.402;2024-03-23T08:37:39;5.90;99.90
15959;DHT22;8078;47.822;9.402;2024-03-23T08:40:05;5.90;51.70
15959;DHT22;8078;47.822;9.402;2024-03-23T08:42:31;5.90;74.10
15959;DHT22;8078;47.822;9.402;2024-03-23T08:44:57;5.90;53.60
15959;DHT22;8078;47.822;9.402;2024-03-23T08:47:22;5.90;47.80
15959;DHT22;8078;47.822;9.402;2024-03-23T08:49:48;5.80;1.50
15959;DHT22;8078;47.822;9.402;2024-03-23T08:52:13;5.80;1.00
15959;DHT22;8078;47.822;9.402;2024-03-23T08:54:39;5.80;90.60
15959;DHT22;8078;47.822;9.402;2024-03-23T08:57:05;5.80;99.90
15959;DHT22;8078;47.822;9.402;2024-03-23T08:59:30;5.90;99.90
15959;DHT22;8078;47.822;9.402;2024-03-23T09:01:56;5.80;99.90
15959;DHT22;8078;47.822;9.402;2024-03-23T09:04:21;5.70;99.90
15959;DHT22;8078;47.822;9.402;2024-03-23T09:06:47;5.50;99.90
15959;DHT22;8078;47.822;9.402;2024-03-23T09:09:12;5.50;99.90
15959;DHT22;8078;47.822;9.402;2024-03-23T09:11:38;5.50;45.00
15959;DHT22;8078;47.822;9.402;2024-03-23T09:14:04;5.50;1.00
15959;DHT22;8078;47.822;9.402;2024-03-23T09:16:29;5.50;1.00
15959;DHT22;8078;47.822;9.402;2024-03-23T09:18:55;5.40;1.00
15959;DHT22;8078;47.822;9.402;2024-03-23T09:21:20;5.40;1.00
15959;DHT22;8078;47.822;9.402;2024-03-23T09:23:46;5.30;1.00
15959;DHT22;8078;47.822;9.402;2024-03-23T09:26:12;5.30;1.00
15959;DHT22;8078;47.822;9.402;2024-03-23T09:28:38;5.30;1.00
15959;DHT22;8078;47.822;9.402;2024-03-23T09:33:30;5.30;1.00
15959;DHT22;8078;47.822;9.402;2024-03-23T09:35:55;5.30;1.00
15959;DHT22;8078;47.822;9.402;2024-03-23T09:38:22;5.30;1.00
15959;DHT22;8078;47.822;9.402;2024-03-23T09:40:50;5.20;1.00
15959;DHT22;8078;47.822;9.402;2024-03-23T09:43:18;5.20;1.00
15959;DHT22;8078;47.822;9.402;2024-03-23T09:45:45;5.10;1.00
15959;DHT22;8078;47.822;9.402;2024-03-23T09:48:11;5.20;1.00
15959;DHT22;8078;47.822;9.402;2024-03-23T09:50:41;5.20;1.00
15959;DHT22;8078;47.822;9.402;2024-03-23T09:53:08;5.20;1.00
15959;DHT22;8078;47.822;9.402;2024-03-23T09:55:34;5.20;1.00
15959;DHT22;8078;47.822;9.402;2024-03-23T09:58:01;5.30;1.00
15959;DHT22;8078;47.822;9.402;2024-03-23T10:00:27;5.20;1.00
15959;DHT22;8078;47.822;9.402;2024-03-23T10:02:55;5.30;1.00
15959;DHT22;8078;47.822;9.402;2024-03-23T10:05:22;5.30;1.00
15959;DHT22;8078;47.822;9.402;2024-03-23T10:07:52;5.40;1.00
15959;DHT22;8078;47.822;9.402;2024-03-23T10:10:18;5.50;1.00
15959;DHT22;8078;47.822;9.402;2024-03-23T10:12:45;5.60;1.00
15959;DHT22;8078;47.822;9.402;2024-03-23T10:15:21;5.70;1.00
15959;DHT22;8078;47.822;9.402;2024-03-23T10:17:47;5.70;1.00
15959;DHT22;8078;47.822;9.402;2024-03-23T10:20:13;5.80;1.00
15959;DHT22;8078;47.822;9.402;2024-03-23T10:22:39;6.10;1.00
15959;DHT22;8078;47.822;9.402;2024-03-23T10:25:09;6.10;1.00
15959;DHT22;8078;47.822;9.402;2024-03-23T10:27:36;6.00;1.00
15959;DHT22;8078;47.822;9.402;2024-03-23T10:30:12;5.90;1.00
15959;DHT22;8078;47.822;9.402;2024-03-23T10:32:38;5.90;1.00
15959;DHT22;8078;47.822;9.402;2024-03-23T10:35:17;5.70;1.00
15959;DHT22;8078;47.822;9.402;2024-03-23T10:37:47;5.80;1.00
15959;DHT22;8078;47.822;9.402;2024-03-23T10:40:15;5.80;1.00
15959;DHT22;8078;47.822;9.402;2024-03-23T10:42:41;5.90;1.00
15959;DHT22;8078;47.822;9.402;2024-03-23T10:45:07;6.20;1.00
15959;DHT22;8078;47.822;9.402;2024-03-23T10:47:37;6.40;1.00
15959;DHT22;8078;47.822;9.402;2024-03-23T10:50:06;6.40;1.00
15959;DHT22;8078;47.822;9.402;2024-03-23T10:52:35;6.10;1.00
15959;DHT22;8078;47.822;9.402;2024-03-23T10:55:04;6.30;1.00
15959;DHT22;8078;47.822;9.402;2024-03-23T10:57:37;6.30;1.00
15959;DHT22;8078;47.822;9.402;2024-03-23T11:00:06;6.20;1.00
15959;DHT22;8078;47.822;9.402;2024-03-23T11:02:32;6.10;1.00
15959;DHT22;8078;47.822;9.402;2024-03-23T11:04:57;6.20;1.00
15959;DHT22;8078;47.822;9.402;2024-03-23T11:09:52;6.30;1.00
15959;DHT22;8078;47.822;9.402;2024-03-23T11:14:47;6.40;1.00
15959;DHT22;8078;47.822;9.402;2024-03-23T11:17:21;6.50;1.00
15959;DHT22;8078;47.822;9.402;2024-03-23T11:20:04;6.50;1.00
15959;DHT22;8078;47.822;9.402;2024-03-23T11:25:19;6.90;1.00
15959;DHT22;8078;47.822;9.402;2024-03-23T11:27:53;6.80;1.00
15959;DHT22;8078;47.822;9.402;2024-03-23T11:30:23;7.60;1.00
15959;DHT22;8078;47.822;9.402;2024-03-23T11:32:51;7.70;1.00
15959;DHT22;8078;47.822;9.402;2024-03-23T11:35:37;7.40;1.00
15959;DHT22;8078;47.822;9.402;2024-03-23T11:38:14;6.90;1.00
15959;DHT22;8078;47.822;9.402;2024-03-23T11:40:42;6.80;1.00
15959;DHT22;8078;47.822;9.402;2024-03-23T11:43:19;6.70;1.00
15959;DHT22;8078;47.822;9.402;2024-03-23T11:45:50;6.60;1.00
15959;DHT22;8078;47.822;9.402;2024-03-23T11:48:21;6.60;1.00
15959;DHT22;8078;47.822;9.402;2024-03-23T11:50:50;6.60;1.00
15959;DHT22;8078;47.822;9.402;2024-03-23T11:55:50;6.90;1.00
15959;DHT22;8078;47.822;9.402;2024-03-23T11:58:18;6.90;1.00
15959;DHT22;8078;47.822;9.402;2024-03-23T12:01:03;6.90;1.00
15959;DHT22;8078;47.822;9.402;2024-03-23T12:03:29;7.20;1.00
15959;DHT22;8078;47.822;9.402;2024-03-23T12:05:57;7.20;1.00
15959;DHT22;8078;47.822;9.402;2024-03-23T12:08:29;7.40;1.00
15959;DHT22;8078;47.822;9.402;2024-03-23T12:11:05;7.90;1.00
15959;DHT22;8078;47.822;9.402;2024-03-23T12:13:31;7.20;1.00
15959;DHT22;8078;47.822;9.402;2024-03-23T12:16:13;7.40;1.00
15959;DHT22;8078;47.822;9.402;2024-03-23T12:18:42;7.60;1.00
15959;DHT22;8078;47.822;9.402;2024-03-23T12:21:08;7.70;1.00
15959;DHT22;8078;47.822;9.402;2024-03-23T12:23:35;8.00;1.00
15959;DHT22;8078;47.822;9.402;2024-03-23T12:26:00;8.10;1.00
15959;DHT22;8078;47.822;9.402;2024-03-23T12:28:27;8.00;1.00
15959;DHT22;8078;47.822;9.402;2024-03-23T12:30:52;7.90;1.00
15959;DHT22;8078;47.822;9.402;2024-03-23T12:33:19;7.70;1.00
15959;DHT22;8078;47.822;9.402;2024-03-23T12:35:45;7.80;1.00
15959;DHT22;8078;47.822;9.402;2024-03-23T12:38:10;8.00;1.00
15959;DHT22;8078;47.822;9.402;2024-03-23T12:40:36;7.90;1.00
15959;DHT22;8078;47.822;9.402;2024-03-23T12:43:02;8.10;1.00
15959;DHT22;8078;47.822;9.402;2024-03-23T12:45:27;7.80;1.00
15959;DHT22;8078;47.822;9.402;2024-03-23T12:47:53;7.80;1.00
15959;DHT22;8078;47.822;9.402;2024-03-23T12:50:20;7.30;1.00
15959;DHT22;8078;47.822;9.402;2024-03-23T12:52:45;6.60;1.00
15959;DHT22;8078;47.822;9.402;2024-03-23T12:55:11;5.90;1.00
15959;DHT22;8078;47.822;9.402;2024-03-23T12:57:36;5.50;1.00
15959;DHT22;8078;47.822;9.402;2024-03-23T13:00:03;5.50;1.00
15959;DHT22;8078;47.822;9.402;2024-03-23T13:02:29;5.70;1.00
15959;DHT22;8078;47.822;9.402;2024-03-23T13:04:55;5.90;1.00
15959;DHT22;8078;47.822;9.402;2024-03-23T13:07:21;5.70;1.00
15959;DHT22;8078;47.822;9.402;2024-03-23T13:09:50;5.40;1.00
15959;DHT22;8078;47.822;9.402;2024-03-23T13:12:15;5.10;1.00
15959;DHT22;8078;47.822;9.402;2024-03-23T13:14:41;4.80;1.00
15959;DHT22;8078;47.822;9.402;2024-03-23T13:17:07;4.70;1.00
15959;DHT22;8078;47.822;9.402;2024-03-23T13:19:33;5.00;1.00
15959;DHT22;8078;47.822;9.402;2024-03-23T13:22:00;5.50;1.00
15959;DHT22;8078;47.822;9.402;2024-03-23T13:24:30;5.40;1.00
15959;DHT22;8078;47.822;9.402;2024-03-23T13:26:56;5.20;1.00
15959;DHT22;8078;47.822;9.402;2024-03-23T13:29:23;5.20;1.00
15959;DHT22;8078;47.822;9.402;2024-03-23T13:31:49;5.40;1.00
15959;DHT22;8078;47.822;9.402;2024-03-23T13:34:16;5.30;1.00
15959;DHT22;8078;47.822;9.402;2024-03-23T13:36:42;5.40;1.00
15959;DHT22;8078;47.822;9.402;2024-03-23T13:39:09;5.70;1.00
15959;DHT22;8078;47.822;9.402;2024-03-23T13:41:38;6.10;1.00
15959;DHT22;8078;47.822;9.402;2024-03-23T13:44:05;6.40;1.00
15959;DHT22;8078;47.822;9.402;2024-03-23T13:46:31;6.40;1.00
15959;DHT22;8078;47.822;9.402;2024-03-23T13:48:57;6.20;1.00
15959;DHT22;8078;47.822;9.402;2024-03-23T13:51:26;6.10;1.00
15959;DHT22;8078;47.822;9.402;2024-03-23T13:53:55;6.30;1.00
15959;DHT22;8078;47.822;9.402;2024-03-23T13:56:29;6.00;1.00
15959;DHT22;8078;47.822;9.402;2024-03-23T13:58:58;5.70;1.00
15959;DHT22;8078;47.822;9.402;2024-03-23T14:01:24;6.10;1.00
15959;DHT22;8078;47.822;9.402;2024-03-23T14:03:50;6.40;1.00
15959;DHT22;8078;47.822;9.402;2024-03-23T14:06:16;6.40;1.00
15959;DHT22;8078;47.822;9.402;2024-03-23T14:08:41;6.10;1.00
15959;DHT22;8078;47.822;9.402;2024-03-23T14:11:10;6.10;1.00
15959;DHT22;8078;47.822;9.402;2024-03-23T14:13:36;6.10;1.00
15959;DHT22;8078;47.822;9.402;2024-03-23T14:16:02;6.10;1.00
15959;DHT22;8078;47.822;9.402;2024-03-23T14:18:28;6.40;1.00
15959;DHT22;8078;47.822;9.402;2024-03-23T14:21:00;6.50;1.00
15959;DHT22;8078;47.822;9.402;2024-03-23T14:23:30;6.30;1.00
15959;DHT22;8078;47.822;9.402;2024-03-23T14:25:58;6.50;1.00
15959;DHT22;8078;47.822;9.402;2024-03-23T14:28:24;6.40;1.00
15959;DHT22;8078;47.822;9.402;2024-03-23T14:30:51;6.70;1.00
15959;DHT22;8078;47.822;9.402;2024-03-23T14:33:17;7.40;1.00
15959;DHT22;8078;47.822;9.402;2024-03-23T14:35:51;7.50;1.00
15959;DHT22;8078;47.822;9.402;2024-03-23T14:38:17;7.30;1.00
15959;DHT22;8078;47.822;9.402;2024-03-23T14:40:43;6.90;1.00
15959;DHT22;8078;47.822;9.402;2024-03-23T14:43:08;6.70;1.00
15959;DHT22;8078;47.822;9.402;2024-03-23T14:45:34;6.20;1.00
15959;DHT22;8078;47.822;9.402;2024-03-23T14:47:59;6.10;1.00
15959;DHT22;8078;47.822;9.402;2024-03-23T14:50:26;6.20;1.00
15959;DHT22;8078;47.822;9.402;2024-03-23T14:52:51;6.40;1.00
15959;DHT22;8078;47.822;9.402;2024-03-23T14:55:17;6.50;1.00
15959;DHT22;8078;47.822;9.402;2024-03-23T14:57:43;6.50;1.00
15959;DHT22;8078;47.822;9.402;2024-03-23T15:00:09;6.70;1.00
15959;DHT22;8078;47.822;9.402;2024-03-23T15:02:38;6.50;1.00
15959;DHT22;8078;47.822;9.402;2024-03-23T15:05:05;7.00;1.00
15959;DHT22;8078;47.822;9.402;2024-03-23T15:07:34;6.80;1.00
15959;DHT22;8078;47.822;9.402;2024-03-23T15:10:00;6.10;1.00
15959;DHT22;8078;47.822;9.402;2024-03-23T15:12:25;6.60;1.00
15959;DHT22;8078;47.822;9.402;2024-03-23T15:14:51;6.70;1.00
15959;DHT22;8078;47.822;9.402;2024-03-23T15:17:16;7.00;1.00
15959;DHT22;8078;47.822;9.402;2024-03-23T15:19:42;7.50;1.00
15959;DHT22;8078;47.822;9.402;2024-03-23T15:22:08;7.00;1.00
15959;DHT22;8078;47.822;9.402;2024-03-23T15:24:34;6.80;1.00
15959;DHT22;8078;47.822;9.402;2024-03-23T15:27:02;6.80;1.00
15959;DHT22;8078;47.822;9.402;2024-03-23T15:29:28;6.80;1.00
15959;DHT22;8078;47.822;9.402;2024-03-23T15:31:53;6.90;1.00
15959;DHT22;8078;47.822;9.402;2024-03-23T15:34:19;6.70;1.00
15959;DHT22;8078;47.822;9.402;2024-03-23T15:36:47;6.90;1.00
15959;DHT22;8078;47.822;9.402;2024-03-23T15:39:14;6.70;1.00
15959;DHT22;8078;47.822;9.402;2024-03-23T15:41:40;6.40;1.00
15959;DHT22;8078;47.822;9.402;2024-03-23T15:44:06;6.80;1.00
15959;DHT22;8078;47.822;9.402;2024-03-23T15:46:31;7.00;1.00
15959;DHT22;8078;47.822;9.402;2024-03-23T15:48:57;6.80;1.00
15959;DHT22;8078;47.822;9.402;2024-03-23T15:51:22;7.10;1.00
15959;DHT22;8078;47.822;9.402;2024-03-23T15:53:49;6.80;1.00
15959;DHT22;8078;47.822;9.402;2024-03-23T15:56:17;7.10;1.00
15959;DHT22;8078;47.822;9.402;2024-03-23T15:58:43;6.90;1.00
15959;DHT22;8078;47.822;9.402;2024-03-23T16:01:09;7.00;1.00
15959;DHT22;8078;47.822;9.402;2024-03-23T16:03:35;6.80;1.00
15959;DHT22;8078;47.822;9.402;2024-03-23T16:06:02;6.80;1.00
15959;DHT22;8078;47.822;9.402;2024-03-23T16:08:29;6.60;1.00
15959;DHT22;8078;47.822;9.402;2024-03-23T16:10:58;6.50;1.00
15959;DHT22;8078;47.822;9.402;2024-03-23T16:13:24;7.00;1.00
15959;DHT22;8078;47.822;9.402;2024-03-23T16:16:00;6.90;1.00
15959;DHT22;8078;47.822;9.402;2024-03-23T16:18:28;6.90;1.00
15959;DHT22;8078;47.822;9.402;2024-03-23T16:20:55;6.90;1.00
15959;DHT22;8078;47.822;9.402;2024-03-23T16:23:21;6.80;1.00
15959;DHT22;8078;47.822;9.402;2024-03-23T16:25:50;6.70;1.00
15959;DHT22;8078;47.822;9.402;2024-03-23T16:28:35;6.60;1.00
15959;DHT22;8078;47.822;9.402;2024-03-23T16:31:02;6.50;1.00
15959;DHT22;8078;47.822;9.402;2024-03-23T16:33:29;6.40;1.00
15959;DHT22;8078;47.822;9.402;2024-03-23T16:36:03;6.10;1.00
15959;DHT22;8078;47.822;9.402;2024-03-23T16:38:35;5.90;1.00
15959;DHT22;8078;47.822;9.402;2024-03-23T16:43:28;5.70;1.00
15959;DHT22;8078;47.822;9.402;2024-03-23T16:46:02;5.60;1.00
15959;DHT22;8078;47.822;9.402;2024-03-23T16:48:32;5.60;1.00
15959;DHT22;8078;47.822;9.402;2024-03-23T16:51:02;5.60;1.00
15959;DHT22;8078;47.822;9.402;2024-03-23T16:53:31;5.30;1.00
15959;DHT22;8078;47.822;9.402;2024-03-23T16:55:58;5.10;1.00
15959;DHT22;8078;47.822;9.402;2024-03-23T16:58:24;5.00;1.00
15959;DHT22;8078;47.822;9.402;2024-03-23T17:00:50;5.00;1.00
15959;DHT22;8078;47.822;9.402;2024-03-23T17:03:18;4.90;1.00
15959;DHT22;8078;47.822;9.402;2024-03-23T17:05:45;4.80;1.00
15959;DHT22;8078;47.822;9.402;2024-03-23T17:08:10;4.70;1.00
15959;DHT22;8078;47.822;9.402;2024-03-23T17:10:36;4.60;1.00
15959;DHT22;8078;47.822;9.402;2024-03-23T17:13:02;4.50;1.00
15959;DHT22;8078;47.822;9.402;2024-03-23T17:15:28;4.50;1.00
15959;DHT22;8078;47.822;9.402;2024-03-23T17:17:53;4.50;1.00
15959;DHT22;8078;47.822;9.402;2024-03-23T17:20:19;4.50;1.00